sensor_id;sensor_type;location;lat;lon;timestamp;noise_LAeq;noise_LA_min;noise_LA_max;noise_LA01;noise_LA95
66888;Laerm;67239;51.680;5.976;2023-03-23T00:01:14;39.72;36.67;44.14;;
66888;Laerm;67239;51.680;5.976;2023-03-23T00:03:50;41.36;37.57;46.65;;
66888;Laerm;67239;51.680;5.976;2023-03-23T00:06:19;60.71;36.44;80.11;;
66888;Laerm;67239;51.680;5.976;2023-03-23T00:08:49;59.76;36.34;77.36;;
66888;Laerm;67239;51.680;5.976;2023-03-23T00:11:21;59.67;35.82;79.08;;
66888;Laerm;67239;51.680;5.976;2023-03-23T00:13:50;42.58;36.23;59.97;;
66888;Laerm;67239;51.680;5.976;2023-03-23T00:16:21;39.60;35.97;53.53;;
66888;Laerm;67239;51.680;5.976;2023-03-23T00:18:57;56.72;36.78;76.03;;
66888;Laerm;67239;51.680;5.976;2023-03-23T00:21:26;59.86;36.86;78.52;;
66888;Laerm;67239;51.680;5.976;2023-03-23T00:24:17;52.62;36.79;70.91;;
66888;Laerm;67239;51.680;5.976;2023-03-23T00:26:45;40.00;37.17;45.55;;
66888;Laerm;67239;51.680;5.976;2023-03-23T00:31:42;61.59;37.51;79.22;;
66888;Laerm;67239;51.680;5.976;2023-03-23T00:34:16;50.86;36.63;66.73;;
66888;Laerm;67239;51.680;5.976;2023-03-23T00:36:47;41.18;36.86;59.52;;
66888;Laerm;67239;51.680;5.976;2023-03-23T00:39:14;39.33;35.63;45.38;;
66888;Laerm;67239;51.680;5.976;2023-03-23T00:41:43;38.98;35.22;45.43;;
66888;Laerm;67239;51.680;5.976;2023-03-23T00:44:11;38.40;35.62;44.56;;
66888;Laerm;67239;51.680;5.976;2023-03-23T00:46:49;39.18;35.18;61.22;;
66888;Laerm;67239;51.680;5.976;2023-03-23T00:49:20;57.72;37.54;75.04;;
66888;Laerm;67239;51.680;5.976;2023-03-23T00:51:56;39.31;35.84;47.13;;
66888;Laerm;67239;51.680;5.976;2023-03-23T00:54:24;38.80;35.41;43.02;;
66888;Laerm;67239;51.680;5.976;2023-03-23T00:56:51;38.11;35.50;41.90;;
66888;Laerm;67239;51.680;5.976;2023-03-23T00:59:18;37.90;35.46;42.50;;
66888;Laerm;67239;51.680;5.976;2023-03-23T01:01:45;55.42;35.28;74.61;;
66888;Laerm;67239;51.680;5.976;2023-03-23T01:04:13;59.44;35.94;76.16;;
66888;Laerm;67239;51.680;5.976;2023-03-23T01:06:43;58.24;34.63;76.93;;
66888;Laerm;67239;51.680;5.976;2023-03-23T01:09:15;38.06;34.89;42.34;;
66888;Laerm;67239;51.680;5.976;2023-03-23T01:11:43;38.36;34.98;42.04;;
66888;Laerm;67239;51.680;5.976;2023-03-23T01:14:12;38.57;35.76;46.23;;
66888;Laerm;67239;51.680;5.976;2023-03-23T01:16:38;41.82;35.18;57.98;;
66888;Laerm;67239;51.680;5.976;2023-03-23T01:19:04;56.52;35.75;75.82;;
66888;Laerm;67239;51.680;5.976;2023-03-23T01:21:31;39.21;35.45;46.13;;
66888;Laerm;67239;51.680;5.976;2023-03-23T01:23:57;39.41;36.11;44.02;;
66888;Laerm;67239;51.680;5.976;2023-03-23T01:26:27;40.96;36.98;48.58;;
66888;Laerm;67239;51.680;5.976;2023-03-23T01:28:54;42.82;39.26;59.88;;
66888;Laerm;67239;51.680;5.976;2023-03-23T01:31:25;47.64;40.50;60.23;;
66888;Laerm;67239;51.680;5.976;2023-03-23T01:33:52;44.43;40.37;59.97;;
66888;Laerm;67239;51.680;5.976;2023-03-23T01:36:23;40.61;36.57;50.79;;
66888;Laerm;67239;51.680;5.976;2023-03-23T01:38:50;40.50;36.10;46.79;;
66888;Laerm;67239;51.680;5.976;2023-03-23T01:41:18;64.99;37.72;79.44;;
66888;Laerm;67239;51.680;5.976;2023-03-23T01:47:00;56.86;36.15;74.02;;
66888;Laerm;67239;51.680;5.976;2023-03-23T01:49:36;48.97;36.15;70.67;;
66888;Laerm;67239;51.680;5.976;2023-03-23T01:52:14;63.45;36.00;82.53;;
66888;Laerm;67239;51.680;5.976;2023-03-23T01:54:47;46.57;35.08;66.98;;
66888;Laerm;67239;51.680;5.976;2023-03-23T01:57:18;64.62;37.63;82.63;;
66888;Laerm;67239;51.680;5.976;2023-03-23T01:59:50;42.59;36.96;55.74;;
66888;Laerm;67239;51.680;5.976;2023-03-23T02:02:23;41.91;38.55;52.22;;
66888;Laerm;67239;51.680;5.976;2023-03-23T02:04:57;57.42;37.43;76.27;;
66888;Laerm;67239;51.680;5.976;2023-03-23T02:07:26;41.30;37.38;55.17;;
66888;Laerm;67239;51.680;5.976;2023-03-23T02:09:55;40.74;37.43;54.10;;
66888;Laerm;67239;51.680;5.976;2023-03-23T02:12:21;40.24;36.57;51.12;;
66888;Laerm;67239;51.680;5.976;2023-03-23T02:14:49;40.57;37.39;51.97;;
66888;Laerm;67239;51.680;5.976;2023-03-23T02:20:33;43.49;37.72;59.86;;
66888;Laerm;67239;51.680;5.976;2023-03-23T02:23:46;40.83;36.74;46.15;;
66888;Laerm;67239;51.680;5.976;2023-03-23T02:34:41;65.51;39.55;83.96;;
66888;Laerm;67239;51.680;5.976;2023-03-23T02:37:15;44.64;38.85;59.38;;
66888;Laerm;67239;51.680;5.976;2023-03-23T02:39:51;44.10;37.82;56.99;;
66888;Laerm;67239;51.680;5.976;2023-03-23T02:42:28;41.94;38.13;50.78;;
66888;Laerm;67239;51.680;5.976;2023-03-23T02:45:03;44.74;39.08;63.33;;
66888;Laerm;67239;51.680;5.976;2023-03-23T02:47:34;42.41;38.78;56.02;;
66888;Laerm;67239;51.680;5.976;2023-03-23T02:50:03;41.25;36.95;57.18;;
66888;Laerm;67239;51.680;5.976;2023-03-23T02:52:34;41.54;38.18;56.81;;
66888;Laerm;67239;51.680;5.976;2023-03-23T02:55:04;62.14;36.79;79.35;;
66888;Laerm;67239;51.680;5.976;2023-03-23T02:57:31;41.41;37.44;54.84;;
66888;Laerm;67239;51.680;5.976;2023-03-23T03:00:00;40.69;37.44;45.48;;
66888;Laerm;67239;51.680;5.976;2023-03-23T03:02:35;56.92;36.48;75.83;;
66888;Laerm;67239;51.680;5.976;2023-03-23T03:11:11;41.53;37.97;51.40;;
66888;Laerm;67239;51.680;5.976;2023-03-23T03:17:11;42.87;39.13;52.36;;
66888;Laerm;67239;51.680;5.976;2023-03-23T03:19:46;42.39;38.97;53.08;;
66888;Laerm;67239;51.680;5.976;2023-03-23T03:22:15;42.52;39.28;53.51;;
66888;Laerm;67239;51.680;5.976;2023-03-23T03:24:43;43.18;38.59;52.34;;
66888;Laerm;67239;51.680;5.976;2023-03-23T03:27:18;43.33;38.39;51.61;;
66888;Laerm;67239;51.680;5.976;2023-03-23T03:30:01;45.31;38.79;57.56;;
66888;Laerm;67239;51.680;5.976;2023-03-23T03:32:44;45.39;39.19;55.95;;
66888;Laerm;67239;51.680;5.976;2023-03-23T03:35:15;43.81;38.54;60.04;;
66888;Laerm;67239;51.680;5.976;2023-03-23T03:37:42;44.56;40.82;58.66;;
66888;Laerm;67239;51.680;5.976;2023-03-23T03:40:13;59.76;38.98;77.46;;
66888;Laerm;67239;51.680;5.976;2023-03-23T03:42:42;43.67;39.11;59.05;;
66888;Laerm;67239;51.680;5.976;2023-03-23T03:45:14;57.34;38.86;77.80;;
66888;Laerm;67239;51.680;5.976;2023-03-23T03:47:40;44.95;38.91;60.48;;
66888;Laerm;67239;51.680;5.976;2023-03-23T03:50:07;62.37;40.10;78.17;;
66888;Laerm;67239;51.680;5.976;2023-03-23T03:52:33;60.05;41.09;77.78;;
66888;Laerm;67239;51.680;5.976;2023-03-23T03:55:00;64.15;39.02;84.37;;
66888;Laerm;67239;51.680;5.976;2023-03-23T03:57:27;44.27;38.48;60.95;;
66888;Laerm;67239;51.680;5.976;2023-03-23T04:00:07;54.48;38.50;71.14;;
66888;Laerm;67239;51.680;5.976;2023-03-23T04:02:46;56.02;39.81;73.24;;
66888;Laerm;67239;51.680;5.976;2023-03-23T04:05:39;62.92;40.49;79.72;;
66888;Laerm;67239;51.680;5.976;2023-03-23T04:08:06;54.08;38.97;71.94;;
66888;Laerm;67239;51.680;5.976;2023-03-23T04:10:32;45.13;38.92;57.49;;
66888;Laerm;67239;51.680;5.976;2023-03-23T04:12:59;55.08;38.56;71.40;;
66888;Laerm;67239;51.680;5.976;2023-03-23T04:15:45;61.27;40.69;77.92;;
66888;Laerm;67239;51.680;5.976;2023-03-23T04:18:13;58.80;41.22;76.59;;
66888;Laerm;67239;51.680;5.976;2023-03-23T04:20:42;62.22;41.46;79.14;;
66888;Laerm;67239;51.680;5.976;2023-03-23T04:23:08;66.17;40.59;83.16;;
66888;Laerm;67239;51.680;5.976;2023-03-23T04:25:34;57.17;41.13;72.03;;
66888;Laerm;67239;51.680;5.976;2023-03-23T04:28:02;64.85;40.86;81.01;;
66888;Laerm;67239;51.680;5.976;2023-03-23T04:30:34;64.65;42.13;82.15;;
66888;Laerm;67239;51.680;5.976;2023-03-23T04:33:06;63.03;40.92;79.97;;
66888;Laerm;67239;51.680;5.976;2023-03-23T04:35:32;65.56;43.56;78.52;;
66888;Laerm;67239;51.680;5.976;2023-03-23T04:38:15;62.84;42.73;78.64;;
66888;Laerm;67239;51.680;5.976;2023-03-23T04:40:43;65.55;42.87;79.77;;
66888;Laerm;67239;51.680;5.976;2023-03-23T04:43:23;67.14;42.73;82.51;;
66888;Laerm;67239;51.680;5.976;2023-03-23T04:45:57;63.28;42.32;80.97;;
66888;Laerm;67239;51.680;5.976;2023-03-23T04:48:30;64.14;42.89;79.31;;
66888;Laerm;67239;51.680;5.976;2023-03-23T04:51:18;62.32;43.38;78.05;;
66888;Laerm;67239;51.680;5.976;2023-03-23T04:53:47;67.90;43.47;85.70;;
66888;Laerm;67239;51.680;5.976;2023-03-23T04:56:13;61.46;43.01;74.67;;
66888;Laerm;67239;51.680;5.976;2023-03-23T04:58:43;60.70;42.58;77.81;;
66888;Laerm;67239;51.680;5.976;2023-03-23T05:01:33;68.43;44.01;83.73;;
66888;Laerm;67239;51.680;5.976;2023-03-23T05:04:13;68.50;45.63;81.68;;
66888;Laerm;67239;51.680;5.976;2023-03-23T05:06:44;66.28;44.46;79.00;;
66888;Laerm;67239;51.680;5.976;2023-03-23T05:09:18;67.58;46.24;81.25;;
66888;Laerm;67239;51.680;5.976;2023-03-23T05:11:44;69.43;48.02;82.27;;
66888;Laerm;67239;51.680;5.976;2023-03-23T05:14:10;66.60;46.37;84.92;;
66888;Laerm;67239;51.680;5.976;2023-03-23T05:16:37;63.70;46.34;77.87;;
66888;Laerm;67239;51.680;5.976;2023-03-23T05:19:04;64.53;43.08;81.26;;
66888;Laerm;67239;51.680;5.976;2023-03-23T05:21:32;65.48;43.51;77.76;;
66888;Laerm;67239;51.680;5.976;2023-03-23T05:23:58;65.60;43.62;83.59;;
66888;Laerm;67239;51.680;5.976;2023-03-23T05:26:27;66.66;43.60;83.34;;
66888;Laerm;67239;51.680;5.976;2023-03-23T05:29:03;66.81;42.42;80.26;;
66888;Laerm;67239;51.680;5.976;2023-03-23T05:31:41;68.11;44.31;82.08;;
66888;Laerm;67239;51.680;5.976;2023-03-23T05:34:07;68.10;43.84;82.40;;
66888;Laerm;67239;51.680;5.976;2023-03-23T05:36:39;66.98;45.02;82.55;;
66888;Laerm;67239;51.680;5.976;2023-03-23T05:39:12;65.23;45.41;79.84;;
66888;Laerm;67239;51.680;5.976;2023-03-23T05:41:59;69.94;47.07;81.79;;
66888;Laerm;67239;51.680;5.976;2023-03-23T05:44:33;68.39;44.00;83.60;;
66888;Laerm;67239;51.680;5.976;2023-03-23T05:47:00;69.06;50.06;81.80;;
66888;Laerm;67239;51.680;5.976;2023-03-23T05:49:26;68.20;47.49;82.67;;
66888;Laerm;67239;51.680;5.976;2023-03-23T05:51:54;69.72;50.79;81.11;;
66888;Laerm;67239;51.680;5.976;2023-03-23T05:54:20;68.56;48.45;79.71;;
66888;Laerm;67239;51.680;5.976;2023-03-23T05:56:48;67.89;45.61;80.07;;
66888;Laerm;67239;51.680;5.976;2023-03-23T05:59:35;72.02;48.78;85.24;;
66888;Laerm;67239;51.680;5.976;2023-03-23T06:02:03;71.34;50.06;81.74;;
66888;Laerm;67239;51.680;5.976;2023-03-23T06:04:30;67.62;46.57;84.03;;
66888;Laerm;67239;51.680;5.976;2023-03-23T06:07:07;68.02;44.14;82.51;;
66888;Laerm;67239;51.680;5.976;2023-03-23T06:09:39;69.24;45.83;83.06;;
66888;Laerm;67239;51.680;5.976;2023-03-23T06:12:39;66.16;48.34;79.01;;
66888;Laerm;67239;51.680;5.976;2023-03-23T06:15:44;64.97;46.56;77.55;;
66888;Laerm;67239;51.680;5.976;2023-03-23T06:18:13;67.57;50.54;80.27;;
66888;Laerm;67239;51.680;5.976;2023-03-23T06:20:58;69.57;48.18;80.56;;
66888;Laerm;67239;51.680;5.976;2023-03-23T06:23:46;69.36;47.00;82.48;;
66888;Laerm;67239;51.680;5.976;2023-03-23T06:26:18;70.62;49.24;82.77;;
66888;Laerm;67239;51.680;5.976;2023-03-23T06:28:46;70.03;49.47;83.32;;
66888;Laerm;67239;51.680;5.976;2023-03-23T06:31:13;70.03;48.18;82.11;;
66888;Laerm;67239;51.680;5.976;2023-03-23T06:33:41;68.46;47.29;80.37;;
66888;Laerm;67239;51.680;5.976;2023-03-23T06:36:25;68.20;47.01;81.08;;
66888;Laerm;67239;51.680;5.976;2023-03-23T06:39:25;70.75;46.94;82.85;;
66888;Laerm;67239;51.680;5.976;2023-03-23T06:42:04;67.91;46.13;82.28;;
66888;Laerm;67239;51.680;5.976;2023-03-23T06:44:34;70.48;46.83;81.34;;
66888;Laerm;67239;51.680;5.976;2023-03-23T06:47:00;71.47;48.68;84.40;;
66888;Laerm;67239;51.680;5.976;2023-03-23T06:49:33;67.95;46.87;82.92;;
66888;Laerm;67239;51.680;5.976;2023-03-23T06:52:09;71.19;51.34;82.17;;
66888;Laerm;67239;51.680;5.976;2023-03-23T06:54:35;69.98;47.91;81.74;;
66888;Laerm;67239;51.680;5.976;2023-03-23T06:57:03;70.39;50.08;81.14;;
66888;Laerm;67239;51.680;5.976;2023-03-23T06:59:28;69.77;47.22;81.23;;
66888;Laerm;67239;51.680;5.976;2023-03-23T07:01:55;71.62;50.44;81.26;;
66888;Laerm;67239;51.680;5.976;2023-03-23T07:04:21;71.05;45.74;85.62;;
66888;Laerm;67239;51.680;5.976;2023-03-23T07:06:55;69.54;47.64;81.90;;
66888;Laerm;67239;51.680;5.976;2023-03-23T07:09:23;67.17;45.76;77.39;;
66888;Laerm;67239;51.680;5.976;2023-03-23T07:11:49;66.27;47.12;79.76;;
66888;Laerm;67239;51.680;5.976;2023-03-23T07:14:31;70.75;51.27;84.12;;
66888;Laerm;67239;51.680;5.976;2023-03-23T07:16:57;69.32;46.84;80.30;;
66888;Laerm;67239;51.680;5.976;2023-03-23T07:19:24;70.33;48.87;80.97;;
66888;Laerm;67239;51.680;5.976;2023-03-23T07:21:50;68.23;48.26;81.54;;
66888;Laerm;67239;51.680;5.976;2023-03-23T07:24:19;70.78;50.92;81.57;;
66888;Laerm;67239;51.680;5.976;2023-03-23T07:27:06;70.61;45.21;87.17;;
66888;Laerm;67239;51.680;5.976;2023-03-23T07:29:32;71.67;50.88;83.86;;
66888;Laerm;67239;51.680;5.976;2023-03-23T07:32:11;71.79;53.10;82.94;;
66888;Laerm;67239;51.680;5.976;2023-03-23T07:34:38;70.93;48.55;82.53;;
66888;Laerm;67239;51.680;5.976;2023-03-23T07:37:18;68.40;49.44;81.74;;
66888;Laerm;67239;51.680;5.976;2023-03-23T07:39:47;68.87;48.10;79.30;;
66888;Laerm;67239;51.680;5.976;2023-03-23T07:42:14;70.44;50.57;82.00;;
66888;Laerm;67239;51.680;5.976;2023-03-23T07:44:46;69.78;52.64;81.61;;
66888;Laerm;67239;51.680;5.976;2023-03-23T07:47:13;71.39;49.74;83.94;;
66888;Laerm;67239;51.680;5.976;2023-03-23T07:49:40;71.06;50.98;84.95;;
66888;Laerm;67239;51.680;5.976;2023-03-23T07:52:15;72.73;50.82;86.26;;
66888;Laerm;67239;51.680;5.976;2023-03-23T07:54:41;70.02;51.30;82.45;;
66888;Laerm;67239;51.680;5.976;2023-03-23T07:57:16;67.61;47.51;80.99;;
66888;Laerm;67239;51.680;5.976;2023-03-23T07:59:48;71.98;50.03;86.65;;
66888;Laerm;67239;51.680;5.976;2023-03-23T08:02:15;72.25;52.67;84.53;;
66888;Laerm;67239;51.680;5.976;2023-03-23T08:04:52;72.29;52.67;84.38;;
66888;Laerm;67239;51.680;5.976;2023-03-23T08:07:42;73.46;53.13;86.46;;
66888;Laerm;67239;51.680;5.976;2023-03-23T08:10:36;71.95;52.54;86.03;;
66888;Laerm;67239;51.680;5.976;2023-03-23T08:13:28;71.85;52.85;82.64;;
66888;Laerm;67239;51.680;5.976;2023-03-23T08:16:10;70.78;51.92;84.33;;
66888;Laerm;67239;51.680;5.976;2023-03-23T08:19:00;70.58;52.03;84.23;;
66888;Laerm;67239;51.680;5.976;2023-03-23T08:21:46;71.54;48.06;83.61;;
66888;Laerm;67239;51.680;5.976;2023-03-23T08:24:36;70.07;49.64;86.22;;
66888;Laerm;67239;51.680;5.976;2023-03-23T08:27:14;67.53;48.27;82.69;;
66888;Laerm;67239;51.680;5.976;2023-03-23T08:29:52;70.64;48.96;85.45;;
66888;Laerm;67239;51.680;5.976;2023-03-23T08:32:43;70.37;47.84;82.84;;
66888;Laerm;67239;51.680;5.976;2023-03-23T08:35:26;68.62;47.96;81.03;;
66888;Laerm;67239;51.680;5.976;2023-03-23T08:38:00;70.71;48.30;82.92;;
66888;Laerm;67239;51.680;5.976;2023-03-23T08:40:58;69.93;48.43;81.76;;
66888;Laerm;67239;51.680;5.976;2023-03-23T08:43:43;69.44;53.42;81.04;;
66888;Laerm;67239;51.680;5.976;2023-03-23T08:46:15;68.41;49.98;82.42;;
66888;Laerm;67239;51.680;5.976;2023-03-23T08:48:59;71.06;53.74;82.58;;
66888;Laerm;67239;51.680;5.976;2023-03-23T08:51:44;69.14;49.31;83.88;;
66888;Laerm;67239;51.680;5.976;2023-03-23T08:54:16;70.51;49.65;83.12;;
66888;Laerm;67239;51.680;5.976;2023-03-23T08:56:43;67.84;48.92;80.99;;
66888;Laerm;67239;51.680;5.976;2023-03-23T08:59:09;70.61;48.45;85.31;;
66888;Laerm;67239;51.680;5.976;2023-03-23T09:01:42;71.95;51.00;84.29;;
66888;Laerm;67239;51.680;5.976;2023-03-23T09:04:40;71.60;46.93;83.45;;
66888;Laerm;67239;51.680;5.976;2023-03-23T09:07:23;68.12;46.91;81.02;;
66888;Laerm;67239;51.680;5.976;2023-03-23T09:09:49;69.80;46.73;83.70;;
66888;Laerm;67239;51.680;5.976;2023-03-23T09:12:15;72.82;55.02;83.43;;
66888;Laerm;67239;51.680;5.976;2023-03-23T09:14:42;67.33;48.12;80.95;;
66888;Laerm;67239;51.680;5.976;2023-03-23T09:17:08;66.61;47.77;78.50;;
66888;Laerm;67239;51.680;5.976;2023-03-23T09:19:35;71.22;50.68;82.59;;
66888;Laerm;67239;51.680;5.976;2023-03-23T09:22:02;69.16;48.85;83.11;;
66888;Laerm;67239;51.680;5.976;2023-03-23T09:24:30;68.99;48.64;84.07;;
66888;Laerm;67239;51.680;5.976;2023-03-23T09:26:56;69.20;50.46;83.93;;
66888;Laerm;67239;51.680;5.976;2023-03-23T09:29:26;69.77;50.51;82.42;;
66888;Laerm;67239;51.680;5.976;2023-03-23T09:31:55;69.96;50.30;82.71;;
66888;Laerm;67239;51.680;5.976;2023-03-23T09:34:22;70.34;49.70;85.17;;
66888;Laerm;67239;51.680;5.976;2023-03-23T09:36:48;70.74;49.56;82.59;;
66888;Laerm;67239;51.680;5.976;2023-03-23T09:39:15;69.13;49.97;82.83;;
66888;Laerm;67239;51.680;5.976;2023-03-23T09:42:08;70.39;50.93;80.66;;
66888;Laerm;67239;51.680;5.976;2023-03-23T09:44:54;68.55;49.30;81.23;;
66888;Laerm;67239;51.680;5.976;2023-03-23T09:50:17;69.75;50.03;83.39;;
66888;Laerm;67239;51.680;5.976;2023-03-23T09:53:05;66.41;48.05;82.03;;
66888;Laerm;67239;51.680;5.976;2023-03-23T09:55:35;70.92;49.92;83.07;;
66888;Laerm;67239;51.680;5.976;2023-03-23T09:58:37;67.59;50.27;80.39;;
66888;Laerm;67239;51.680;5.976;2023-03-23T10:01:24;69.75;50.55;82.81;;
66888;Laerm;67239;51.680;5.976;2023-03-23T10:04:05;70.78;48.74;81.99;;
66888;Laerm;67239;51.680;5.976;2023-03-23T10:06:32;66.18;48.87;80.50;;
66888;Laerm;67239;51.680;5.976;2023-03-23T10:09:02;71.84;49.43;86.06;;
66888;Laerm;67239;51.680;5.976;2023-03-23T10:17:29;68.06;46.08;82.77;;
66888;Laerm;67239;51.680;5.976;2023-03-23T10:26:02;67.67;47.82;78.19;;
66888;Laerm;67239;51.680;5.976;2023-03-23T10:28:42;69.32;49.18;84.66;;
66888;Laerm;67239;51.680;5.976;2023-03-23T10:31:37;68.76;45.77;80.95;;
66888;Laerm;67239;51.680;5.976;2023-03-23T10:34:49;68.54;47.10;84.03;;
66888;Laerm;67239;51.680;5.976;2023-03-23T10:37:22;69.79;46.30;84.48;;
66888;Laerm;67239;51.680;5.976;2023-03-23T10:39:58;70.35;45.91;82.99;;
66888;Laerm;67239;51.680;5.976;2023-03-23T10:42:29;67.81;45.04;82.14;;
66888;Laerm;67239;51.680;5.976;2023-03-23T10:45:00;68.68;48.08;80.05;;
66888;Laerm;67239;51.680;5.976;2023-03-23T10:47:26;67.10;46.94;81.95;;
66888;Laerm;67239;51.680;5.976;2023-03-23T10:50:04;69.54;50.16;81.63;;
66888;Laerm;67239;51.680;5.976;2023-03-23T10:52:36;69.49;51.33;82.47;;
66888;Laerm;67239;51.680;5.976;2023-03-23T10:55:17;68.23;49.04;83.00;;
66888;Laerm;67239;51.680;5.976;2023-03-23T10:57:47;70.30;46.34;87.78;;
66888;Laerm;67239;51.680;5.976;2023-03-23T11:00:25;67.94;48.58;83.52;;
66888;Laerm;67239;51.680;5.976;2023-03-23T11:05:58;67.22;47.81;80.47;;
66888;Laerm;67239;51.680;5.976;2023-03-23T11:08:35;67.01;47.75;80.68;;
66888;Laerm;67239;51.680;5.976;2023-03-23T11:11:26;69.49;51.21;81.23;;
66888;Laerm;67239;51.680;5.976;2023-03-23T11:14:01;69.36;50.65;80.19;;
66888;Laerm;67239;51.680;5.976;2023-03-23T11:16:49;68.70;49.28;79.82;;
66888;Laerm;67239;51.680;5.976;2023-03-23T11:19:29;68.13;48.03;80.07;;
66888;Laerm;67239;51.680;5.976;2023-03-23T11:22:42;68.74;47.47;82.26;;
66888;Laerm;67239;51.680;5.976;2023-03-23T11:25:12;67.32;49.17;78.94;;
66888;Laerm;67239;51.680;5.976;2023-03-23T11:27:39;68.01;47.95;79.20;;
66888;Laerm;67239;51.680;5.976;2023-03-23T11:30:25;68.68;48.27;82.14;;
66888;Laerm;67239;51.680;5.976;2023-03-23T11:32:55;66.03;45.25;80.09;;
66888;Laerm;67239;51.680;5.976;2023-03-23T11:35:28;67.46;45.14;78.97;;
66888;Laerm;67239;51.680;5.976;2023-03-23T11:37:57;67.06;46.93;79.98;;
66888;Laerm;67239;51.680;5.976;2023-03-23T11:40:28;69.30;44.41;81.14;;
66888;Laerm;67239;51.680;5.976;2023-03-23T11:43:13;67.32;44.72;79.95;;
66888;Laerm;67239;51.680;5.976;2023-03-23T11:45:47;66.82;50.50;80.41;;
66888;Laerm;67239;51.680;5.976;2023-03-23T11:48:53;67.42;48.48;79.59;;
66888;Laerm;67239;51.680;5.976;2023-03-23T11:51:41;66.50;48.22;78.32;;
66888;Laerm;67239;51.680;5.976;2023-03-23T11:54:34;69.79;46.93;82.97;;
66888;Laerm;67239;51.680;5.976;2023-03-23T11:57:11;64.06;45.24;79.95;;
66888;Laerm;67239;51.680;5.976;2023-03-23T11:59:39;67.25;43.93;83.14;;
66888;Laerm;67239;51.680;5.976;2023-03-23T12:04:56;71.22;48.92;84.78;;
66888;Laerm;67239;51.680;5.976;2023-03-23T12:07:55;67.37;45.73;83.54;;
66888;Laerm;67239;51.680;5.976;2023-03-23T12:13:24;69.85;46.88;83.33;;
66888;Laerm;67239;51.680;5.976;2023-03-23T12:33:13;70.10;45.61;86.51;;
66888;Laerm;67239;51.680;5.976;2023-03-23T12:36:06;68.92;45.44;82.84;;
66888;Laerm;67239;51.680;5.976;2023-03-23T12:48:12;69.32;48.84;81.56;;
66888;Laerm;67239;51.680;5.976;2023-03-23T12:53:27;70.45;49.06;88.62;;
66888;Laerm;67239;51.680;5.976;2023-03-23T12:56:31;66.80;46.16;79.02;;
66888;Laerm;67239;51.680;5.976;2023-03-23T12:59:15;70.05;44.57;81.95;;
66888;Laerm;67239;51.680;5.976;2023-03-23T13:01:51;68.06;48.48;79.72;;
66888;Laerm;67239;51.680;5.976;2023-03-23T13:04:31;69.94;48.20;79.17;;
66888;Laerm;67239;51.680;5.976;2023-03-23T13:07:06;69.25;49.94;79.72;;
66888;Laerm;67239;51.680;5.976;2023-03-23T13:09:49;67.17;47.23;80.41;;
66888;Laerm;67239;51.680;5.976;2023-03-23T13:12:17;69.97;49.50;81.65;;
66888;Laerm;67239;51.680;5.976;2023-03-23T13:15:11;66.73;45.28;77.19;;
66888;Laerm;67239;51.680;5.976;2023-03-23T13:18:29;70.49;47.63;82.70;;
66888;Laerm;67239;51.680;5.976;2023-03-23T13:21:21;69.46;46.66;83.67;;
66888;Laerm;67239;51.680;5.976;2023-03-23T13:23:57;69.76;49.22;84.42;;
66888;Laerm;67239;51.680;5.976;2023-03-23T13:26:25;68.88;48.64;82.89;;
66888;Laerm;67239;51.680;5.976;2023-03-23T13:29:12;69.83;48.10;81.51;;
66888;Laerm;67239;51.680;5.976;2023-03-23T13:31:41;71.42;49.75;87.23;;
66888;Laerm;67239;51.680;5.976;2023-03-23T13:34:30;69.28;48.17;87.05;;
66888;Laerm;67239;51.680;5.976;2023-03-23T13:37:04;68.16;47.17;81.82;;
66888;Laerm;67239;51.680;5.976;2023-03-23T13:39:35;68.20;46.53;81.58;;
66888;Laerm;67239;51.680;5.976;2023-03-23T13:42:20;65.32;44.56;80.10;;
66888;Laerm;67239;51.680;5.976;2023-03-23T13:55:30;67.77;47.53;78.73;;
66888;Laerm;67239;51.680;5.976;2023-03-23T14:03:25;67.94;49.11;80.21;;
66888;Laerm;67239;51.680;5.976;2023-03-23T14:06:05;68.52;47.15;81.74;;
66888;Laerm;67239;51.680;5.976;2023-03-23T14:08:51;67.82;50.51;81.11;;
66888;Laerm;67239;51.680;5.976;2023-03-23T14:11:27;68.82;49.03;82.98;;
66888;Laerm;67239;51.680;5.976;2023-03-23T14:14:06;70.76;50.27;86.23;;
66888;Laerm;67239;51.680;5.976;2023-03-23T14:19:28;69.43;48.68;82.14;;
66888;Laerm;67239;51.680;5.976;2023-03-23T14:21:57;69.18;50.67;81.90;;
66888;Laerm;67239;51.680;5.976;2023-03-23T14:24:30;72.88;54.27;85.03;;
66888;Laerm;67239;51.680;5.976;2023-03-23T14:27:15;72.77;51.51;87.73;;
66888;Laerm;67239;51.680;5.976;2023-03-23T14:29:42;72.08;48.62;85.61;;
66888;Laerm;67239;51.680;5.976;2023-03-23T14:32:16;72.68;49.86;85.76;;
66888;Laerm;67239;51.680;5.976;2023-03-23T14:34:47;71.58;51.60;85.33;;
66888;Laerm;67239;51.680;5.976;2023-03-23T14:37:15;72.09;50.92;82.03;;
66888;Laerm;67239;51.680;5.976;2023-03-23T14:39:52;68.12;47.32;79.04;;
66888;Laerm;67239;51.680;5.976;2023-03-23T14:42:38;72.47;48.26;82.62;;
66888;Laerm;67239;51.680;5.976;2023-03-23T14:45:06;69.08;49.86;79.94;;
66888;Laerm;67239;51.680;5.976;2023-03-23T14:47:40;72.96;47.33;87.17;;
66888;Laerm;67239;51.680;5.976;2023-03-23T14:53:32;71.45;47.99;84.32;;
66888;Laerm;67239;51.680;5.976;2023-03-23T14:56:10;70.91;44.57;85.59;;
66888;Laerm;67239;51.680;5.976;2023-03-23T14:58:37;70.61;52.89;83.26;;
66888;Laerm;67239;51.680;5.976;2023-03-23T15:01:11;71.66;50.83;82.50;;
66888;Laerm;67239;51.680;5.976;2023-03-23T15:04:04;71.40;51.43;81.15;;
66888;Laerm;67239;51.680;5.976;2023-03-23T15:06:35;68.47;45.94;83.96;;
66888;Laerm;67239;51.680;5.976;2023-03-23T15:09:12;67.34;47.86;79.47;;
66888;Laerm;67239;51.680;5.976;2023-03-23T15:11:40;70.67;49.01;87.64;;
66888;Laerm;67239;51.680;5.976;2023-03-23T15:14:17;69.86;48.28;86.66;;
66888;Laerm;67239;51.680;5.976;2023-03-23T15:16:50;69.46;52.10;80.43;;
66888;Laerm;67239;51.680;5.976;2023-03-23T15:19:23;70.70;48.49;81.28;;
66888;Laerm;67239;51.680;5.976;2023-03-23T15:22:06;70.54;49.31;85.33;;
66888;Laerm;67239;51.680;5.976;2023-03-23T15:24:37;71.63;49.85;83.42;;
66888;Laerm;67239;51.680;5.976;2023-03-23T15:27:25;70.73;46.29;87.86;;
66888;Laerm;67239;51.680;5.976;2023-03-23T15:29:57;71.45;50.27;83.43;;
66888;Laerm;67239;51.680;5.976;2023-03-23T15:32:28;64.97;44.33;81.23;;
66888;Laerm;67239;51.680;5.976;2023-03-23T15:34:56;71.64;51.87;80.95;;
66888;Laerm;67239;51.680;5.976;2023-03-23T15:37:31;71.17;51.53;81.55;;
66888;Laerm;67239;51.680;5.976;2023-03-23T15:39:59;70.44;51.77;83.35;;
66888;Laerm;67239;51.680;5.976;2023-03-23T15:42:33;70.72;50.89;81.97;;
66888;Laerm;67239;51.680;5.976;2023-03-23T15:45:05;70.55;48.79;80.71;;
66888;Laerm;67239;51.680;5.976;2023-03-23T15:50:34;70.12;47.89;80.61;;
66888;Laerm;67239;51.680;5.976;2023-03-23T15:53:22;70.88;43.94;85.46;;
66888;Laerm;67239;51.680;5.976;2023-03-23T15:55:49;70.29;48.61;83.16;;
66888;Laerm;67239;51.680;5.976;2023-03-23T15:58:15;70.07;47.43;83.57;;
66888;Laerm;67239;51.680;5.976;2023-03-23T16:00:44;68.77;44.14;79.07;;
66888;Laerm;67239;51.680;5.976;2023-03-23T16:03:19;71.31;48.20;85.35;;
66888;Laerm;67239;51.680;5.976;2023-03-23T16:05:49;69.68;51.11;81.10;;
66888;Laerm;67239;51.680;5.976;2023-03-23T16:08:16;72.50;46.03;87.98;;
66888;Laerm;67239;51.680;5.976;2023-03-23T16:10:44;68.74;42.29;79.35;;